Virden, Canada
Current Conditions -  °F | °C
As of 1:00 AM on Friday 19 Dec 2014 (Local Time) from CYBR Reporting Station
Light Snow Light Snow  
Wind Chill: 13°   Ceiling: 1100
Heat Index: 19°   Visibility: 12mi
Dew Point: 18°   Wind: 5mph
Humidity: 93%   Direction: 150°SSE
Pressure: 30.01"   Gusts: NA
Location:  49.84°N, 100.93°W
Report Text: CYBR 190700Z 15004KT 12SM -SN OVC011 M07/M08 A3001 RMK SC8 SLP197
Loading
Personal Weather Stations






























Interactive Weather Map New forecast layout! Learn more

10-Day Weather Forecast

Advertisements
Track Severe Weather on mobile